Time;durP1;ratioP1;P1;durP2;ratioP2;P2;SDS_P1;SDS_P2;PMS_P1;PMS_P2;Temp;Humidity;BMP_temperature;BMP_pressure;BME280_temperature;BME280_humidity;BME280_pressure;Samples;Min_cycle;Max_cycle;Signal;HPM_P1;HPM_P2
2023/10/23 00:01:24;;;;;;;5.47;1.50;;;;;;;17.06;57.58;98055.91;4425707;32;20453;-79
2023/10/23 00:03:51;;;;;;;5.18;1.80;;;;;;;17.04;57.32;98054.34;4411616;32;20418;-79
2023/10/23 00:06:18;;;;;;;3.65;1.50;;;;;;;16.60;59.03;98058.19;4425595;32;20108;-79
2023/10/23 00:08:45;;;;;;;4.05;1.60;;;;;;;16.62;58.95;98055.47;4425559;32;20077;-79
2023/10/23 00:11:24;;;;;;;5.47;1.62;;;;;;;17.53;56.92;98054.34;4425723;32;20160;-79
2023/10/23 00:13:51;;;;;;;7.32;2.22;;;;;;;17.79;55.92;98064.75;4425844;32;20090;-79
2023/10/23 00:16:18;;;;;;;3.40;1.50;;;;;;;18.07;54.52;98063.56;4425103;32;20172;-78
2023/10/23 00:18:45;;;;;;;3.67;1.48;;;;;;;17.36;56.44;98052.13;4425646;32;20112;-79
2023/10/23 00:21:13;;;;;;;3.03;1.17;;;;;;;17.44;56.45;98059.38;4411911;32;20110;-79
2023/10/23 00:23:40;;;;;;;3.15;1.45;;;;;;;17.99;55.13;98058.94;4425387;32;20090;-80
2023/10/23 00:26:07;;;;;;;5.37;1.62;;;;;;;17.80;54.98;98061.19;4425581;32;20163;-79
2023/10/23 00:28:34;;;;;;;4.87;1.90;;;;;;;17.85;54.68;98053.84;4411877;32;20444;-79
2023/10/23 00:31:01;;;;;;;4.25;1.70;;;;;;;18.20;52.27;98051.31;4425251;32;20422;-80
2023/10/23 00:33:28;;;;;;;3.62;1.35;;;;;;;17.42;54.27;98049.06;4425567;32;20441;-79
2023/10/23 00:35:55;;;;;;;5.20;2.00;;;;;;;17.35;54.46;98047.84;4424585;32;20150;-79
2023/10/23 00:38:22;;;;;;;6.03;2.40;;;;;;;16.93;55.74;98049.87;4425189;32;20133;-80
2023/10/23 00:40:49;;;;;;;4.40;1.98;;;;;;;17.42;54.58;98048.22;4425457;32;20173;-79
2023/10/23 00:43:21;;;;;;;3.70;1.80;;;;;;;16.72;55.97;98046.12;4425469;32;20116;-79
2023/10/23 00:46:04;;;;;;;5.50;1.90;;;;;;;16.15;56.96;98054.22;4425262;32;20108;-80
2023/10/23 00:48:32;;;;;;;5.37;1.98;;;;;;;17.00;55.04;98043.28;4411753;32;20094;-79
2023/10/23 00:51:00;;;;;;;6.57;2.17;;;;;;;17.40;54.02;98047.50;4411501;32;20431;-80
2023/10/23 00:53:31;;;;;;;6.70;2.12;;;;;;;16.91;55.25;98045.72;4425503;32;20094;-79
2023/10/23 00:55:59;;;;;;;8.38;2.20;;;;;;;17.04;55.01;98049.13;4411733;32;20150;-79
2023/10/23 00:58:26;;;;;;;4.80;1.98;;;;;;;17.19;54.60;98049.84;4411373;32;20376;-79
2023/10/23 01:00:57;;;;;;;6.87;2.60;;;;;;;17.16;54.11;98045.69;4425267;32;20452;-79
2023/10/23 01:03:25;;;;;;;5.05;2.20;;;;;;;16.18;56.65;98052.25;4425582;32;20138;-79
2023/10/23 01:05:53;;;;;;;4.62;1.98;;;;;;;15.94;57.34;98042.59;4424976;32;20453;-79
2023/10/23 01:08:20;;;;;;;3.90;1.50;;;;;;;15.75;57.67;98054.19;4425325;32;20104;-79
2023/10/23 01:10:47;;;;;;;2.78;1.30;;;;;;;16.20;56.57;98053.00;4425314;32;20648;-79
2023/10/23 01:13:14;;;;;;;2.35;0.95;;;;;;;15.94;57.85;98051.22;4424969;32;20098;-80
2023/10/23 01:15:41;;;;;;;1.70;0.90;;;;;;;16.00;57.92;98052.63;4411330;32;20107;-79
2023/10/23 01:18:08;;;;;;;3.10;1.10;;;;;;;16.34;57.13;98048.63;4424991;32;20121;-79
2023/10/23 01:20:35;;;;;;;2.95;0.80;;;;;;;16.32;57.48;98053.94;4424848;32;20158;-80
2023/10/23 01:23:02;;;;;;;1.60;0.90;;;;;;;16.51;56.94;98057.94;4425287;32;20426;-79
2023/10/23 01:25:30;;;;;;;2.42;0.90;;;;;;;15.97;57.78;98045.00;4425065;32;20085;-79
2023/10/23 01:27:57;;;;;;;1.10;0.80;;;;;;;16.11;58.16;98039.75;4424798;32;20443;-80
2023/10/23 01:30:24;;;;;;;2.03;0.95;;;;;;;16.13;58.43;98041.28;4411464;32;20164;-79
2023/10/23 01:32:51;;;;;;;3.42;1.00;;;;;;;16.58;56.67;98031.38;4425100;32;20114;-79
2023/10/23 01:35:18;;;;;;;1.73;0.95;;;;;;;16.12;57.93;98041.41;4410897;32;20085;-79
2023/10/23 01:37:47;;;;;;;1.58;0.80;;;;;;;16.35;57.90;98037.28;4411379;32;20148;-79
2023/10/23 01:40:14;;;;;;;1.67;0.90;;;;;;;16.69;56.70;98031.53;4424756;32;20094;-79
2023/10/23 01:42:42;;;;;;;4.25;0.90;;;;;;;16.99;55.68;98040.78;4425145;32;20098;-79
2023/10/23 01:45:09;;;;;;;1.17;0.80;;;;;;;16.53;56.39;98032.63;4410923;32;20162;-79
2023/10/23 01:47:36;;;;;;;3.90;1.05;;;;;;;16.08;58.29;98040.78;4424745;32;20584;-79
2023/10/23 01:50:04;;;;;;;2.92;1.00;;;;;;;15.75;58.97;98041.19;4424991;32;20102;-79
2023/10/23 01:52:31;;;;;;;1.40;0.90;;;;;;;15.95;58.01;98045.13;4411230;32;20148;-79
2023/10/23 01:54:58;;;;;;;2.25;0.90;;;;;;;15.69;58.38;98046.75;4424482;32;20093;-79
2023/10/23 01:57:25;;;;;;;2.30;1.00;;;;;;;16.17;56.80;98041.94;4424924;32;20124;-79
2023/10/23 01:59:52;;;;;;;1.37;0.90;;;;;;;15.80;58.09;98046.91;4425030;32;20106;-79
2023/10/23 02:02:19;;;;;;;2.50;0.75;;;;;;;15.74;58.23;98036.91;4424476;32;20137;-79
2023/10/23 02:04:46;;;;;;;2.45;1.00;;;;;;;15.84;58.86;98039.75;4424645;32;20085;-79
2023/10/23 02:07:13;;;;;;;1.75;1.00;;;;;;;15.55;60.50;98034.59;4424831;32;20125;-79
2023/10/23 02:09:40;;;;;;;3.03;1.10;;;;;;;15.40;61.57;98037.31;4424485;32;20115;-79
2023/10/23 02:12:07;;;;;;;5.35;1.73;;;;;;;15.33;61.60;98029.09;4424734;32;20468;-79
2023/10/23 02:14:36;;;;;;;2.70;1.10;;;;;;;15.57;61.19;98032.75;4424635;32;20135;-79
2023/10/23 02:17:03;;;;;;;2.30;1.15;;;;;;;15.57;60.48;98029.31;4424142;32;20081;-79
2023/10/23 02:19:30;;;;;;;3.10;1.10;;;;;;;15.72;60.40;98028.34;4410897;32;20125;-79
2023/10/23 02:21:57;;;;;;;2.05;1.10;;;;;;;16.05;58.63;98030.53;4424593;32;20108;-79
2023/10/23 02:24:24;;;;;;;5.50;1.60;;;;;;;16.16;58.15;98035.06;4424176;32;20090;-78
2023/10/23 02:26:52;;;;;;;3.53;1.37;;;;;;;15.84;57.69;98030.19;4424482;32;20085;-79
2023/10/23 02:29:18;;;;;;;4.95;1.45;;;;;;;16.28;56.99;98025.63;4410422;32;20149;-79
2023/10/23 02:31:45;;;;;;;4.82;1.42;;;;;;;16.27;56.80;98026.53;4424500;32;20101;-79
2023/10/23 02:34:12;;;;;;;4.82;1.40;;;;;;;15.96;57.87;98017.31;4424406;32;20104;-79
2023/10/23 02:36:39;;;;;;;3.72;1.55;;;;;;;16.28;56.64;98023.84;4424019;32;20085;-79
2023/10/23 02:39:06;;;;;;;4.72;1.77;;;;;;;15.97;57.13;98032.84;4424276;32;20147;-79
2023/10/23 02:41:33;;;;;;;1.48;0.90;;;;;;;15.60;57.74;98032.56;4424293;32;20170;-79
2023/10/23 02:44:00;;;;;;;2.08;0.80;;;;;;;15.50;58.06;98028.84;4424016;32;20121;-79
2023/10/23 02:46:27;;;;;;;1.70;0.85;;;;;;;15.36;58.56;98041.06;4424204;32;20128;-79
2023/10/23 02:48:55;;;;;;;2.70;0.65;;;;;;;15.21;59.10;98030.69;4424081;32;20106;-79
2023/10/23 02:51:22;;;;;;;1.23;0.80;;;;;;;15.17;59.20;98033.53;4423823;32;20132;-79
2023/10/23 02:53:49;;;;;;;1.10;0.80;;;;;;;15.29;59.07;98025.00;4424156;32;20145;-79
2023/10/23 02:56:16;;;;;;;1.98;0.80;;;;;;;15.02;59.46;98035.34;4424218;32;20100;-79
2023/10/23 02:58:43;;;;;;;0.90;0.80;;;;;;;15.32;58.77;98035.22;4425055;32;20109;-79
2023/10/23 03:01:17;;;;;;;2.67;0.80;;;;;;;15.52;58.24;98036.53;4426120;32;20098;-79
2023/10/23 03:03:44;;;;;;;1.80;0.90;;;;;;;15.37;58.23;98037.53;4412539;32;20093;-79
2023/10/23 03:06:12;;;;;;;0.75;0.68;;;;;;;15.17;59.05;98041.34;4425679;32;20108;-79
2023/10/23 03:08:39;;;;;;;2.40;0.85;;;;;;;15.18;59.22;98043.00;4426177;32;20444;-79
2023/10/23 03:11:06;;;;;;;2.05;0.77;;;;;;;15.16;59.59;98035.31;4426123;32;20110;-79
2023/10/23 03:13:34;;;;;;;1.75;0.80;;;;;;;14.55;62.24;98035.56;4425891;32;20101;-79
2023/10/23 03:16:01;;;;;;;1.95;0.95;;;;;;;14.00;64.29;98043.91;4425993;32;20119;-79
2023/10/23 03:18:28;;;;;;;1.55;0.90;;;;;;;15.21;62.00;98045.44;4425602;32;20126;-80
2023/10/23 03:20:59;;;;;;;1.15;0.77;;;;;;;15.65;59.19;98047.91;4412273;32;20420;-79
2023/10/23 03:23:30;;;;;;;1.85;0.90;;;;;;;15.47;57.56;98054.22;4426075;32;20105;-79
2023/10/23 03:25:57;;;;;;;3.50;0.80;;;;;;;15.03;58.08;98056.03;4425645;32;20432;-79
2023/10/23 03:28:25;;;;;;;3.22;0.90;;;;;;;15.15;57.79;98058.81;4412201;32;20122;-79
2023/10/23 03:30:52;;;;;;;1.87;1.00;;;;;;;15.37;56.58;98056.56;4425945;32;20102;-79
2023/10/23 03:33:19;;;;;;;1.87;0.90;;;;;;;15.43;56.01;98057.94;4425621;32;20090;-79
2023/10/23 03:35:46;;;;;;;1.92;1.00;;;;;;;15.60;56.06;98060.34;4425851;32;20104;-79
2023/10/23 03:38:14;;;;;;;1.55;0.77;;;;;;;15.50;55.85;98061.81;4425980;32;20153;-79
2023/10/23 03:40:41;;;;;;;2.17;0.80;;;;;;;15.09;57.16;98062.59;4411946;32;20113;-79
2023/10/23 03:43:08;;;;;;;1.00;0.80;;;;;;;14.67;59.22;98066.84;4412124;32;20468;-79
2023/10/23 03:45:36;;;;;;;5.95;1.15;;;;;;;14.50;60.29;98072.19;4425792;32;20476;-79
2023/10/23 03:48:04;;;;;;;1.90;0.90;;;;;;;14.64;59.97;98069.62;4425600;32;20438;-79
2023/10/23 03:50:31;;;;;;;3.53;1.45;;;;;;;13.95;63.65;98059.75;4425953;32;20094;-79
2023/10/23 03:52:58;;;;;;;2.45;1.10;;;;;;;14.03;63.57;98062.72;4425994;32;20606;-79
2023/10/23 03:55:25;;;;;;;3.72;0.88;;;;;;;14.52;62.87;98069.50;4425430;32;20081;-79
2023/10/23 03:57:52;;;;;;;2.20;0.90;;;;;;;14.86;62.32;98063.97;4425818;32;20464;-79
2023/10/23 04:00:19;;;;;;;1.08;0.70;;;;;;;14.54;63.15;98073.66;4425549;32;20086;-79
2023/10/23 04:02:46;;;;;;;2.17;1.10;;;;;;;14.72;63.03;98064.81;4425781;32;20095;-79
2023/10/23 04:05:13;;;;;;;2.85;0.90;;;;;;;15.09;61.95;98064.34;4425677;32;20073;-79
2023/10/23 04:07:40;;;;;;;1.95;0.90;;;;;;;15.56;59.80;98069.25;4425415;32;20126;-79
2023/10/23 04:10:08;;;;;;;2.20;0.90;;;;;;;15.62;59.42;98063.69;4424756;32;20384;-79
2023/10/23 04:12:35;;;;;;;1.35;0.90;;;;;;;15.47;58.12;98067.22;4425798;32;20094;-79
2023/10/23 04:15:03;;;;;;;6.87;1.50;;;;;;;15.04;59.49;98070.69;4425324;32;20100;-78
2023/10/23 04:17:30;;;;;;;5.03;1.70;;;;;;;15.22;58.33;98067.91;4425494;32;20160;-78
2023/10/23 04:19:58;;;;;;;3.92;1.67;;;;;;;15.33;57.62;98062.88;4425825;32;20089;-79
2023/10/23 04:22:25;;;;;;;5.95;1.67;;;;;;;14.78;59.47;98063.63;4411432;32;20160;-79
2023/10/23 04:24:54;;;;;;;4.12;1.40;;;;;;;14.74;60.30;98065.53;4425638;32;20121;-79
2023/10/23 04:27:21;;;;;;;3.35;1.40;;;;;;;14.35;61.43;98060.06;4425633;32;20161;-79
2023/10/23 04:29:49;;;;;;;3.03;1.20;;;;;;;14.79;61.15;98057.50;4425309;32;20145;-79
2023/10/23 04:32:15;;;;;;;4.95;1.52;;;;;;;15.52;59.35;98057.34;4425631;32;20425;-79
2023/10/23 04:34:42;;;;;;;3.58;1.50;;;;;;;15.62;58.58;98061.91;4425619;32;20116;-79
2023/10/23 04:37:09;;;;;;;4.00;1.67;;;;;;;15.34;59.30;98054.97;4425119;32;20122;-79
2023/10/23 04:39:36;;;;;;;3.05;1.15;;;;;;;15.33;59.53;98050.72;4425645;32;20102;-79
2023/10/23 04:42:04;;;;;;;5.87;1.45;;;;;;;16.24;55.47;98051.00;4425500;32;20100;-79
2023/10/23 04:44:31;;;;;;;3.87;1.58;;;;;;;15.28;58.22;98060.53;4425135;32;20500;-79
2023/10/23 04:46:58;;;;;;;4.00;1.37;;;;;;;15.50;57.95;98054.00;4425456;32;20098;-79
2023/10/23 04:49:25;;;;;;;3.85;1.62;;;;;;;15.42;57.23;98045.84;4425306;32;20157;-79
2023/10/23 04:51:52;;;;;;;2.78;1.40;;;;;;;15.36;57.63;98047.09;4411828;32;20126;-79
2023/10/23 04:54:20;;;;;;;5.85;2.00;;;;;;;15.49;56.94;98050.59;4425450;32;20151;-78
2023/10/23 04:56:47;;;;;;;5.07;2.12;;;;;;;16.05;54.94;98051.38;4425049;32;20098;-80
2023/10/23 04:59:14;;;;;;;6.43;2.50;;;;;;;15.47;55.94;98042.03;4425576;32;20094;-79
2023/10/23 05:01:41;;;;;;;8.85;3.12;;;;;;;15.91;54.98;98043.63;4425320;32;20096;-79
2023/10/23 05:04:08;;;;;;;9.85;3.20;;;;;;;15.37;56.41;98043.56;4425106;32;20074;-79
2023/10/23 05:06:35;;;;;;;7.35;2.50;;;;;;;15.44;56.34;98046.62;4425288;32;20112;-79
2023/10/23 05:09:02;;;;;;;9.05;3.33;;;;;;;15.34;56.66;98046.34;4425313;32;20113;-79
2023/10/23 05:11:31;;;;;;;7.43;2.40;;;;;;;15.22;56.98;98049.72;4424982;32;20602;-79
2023/10/23 05:13:58;;;;;;;9.38;2.20;;;;;;;14.93;57.91;98067.06;4425355;32;20523;-79
2023/10/23 05:16:25;;;;;;;6.82;2.20;;;;;;;15.00;57.99;98057.97;4411235;32;20128;-81
2023/10/23 05:18:52;;;;;;;9.90;2.67;;;;;;;14.87;58.32;98063.06;4424889;32;20113;-82
2023/10/23 05:21:19;;;;;;;6.32;2.15;;;;;;;15.21;57.89;98061.88;4424718;32;20116;-81
2023/10/23 05:23:46;;;;;;;8.88;2.53;;;;;;;15.36;57.33;98067.03;4425245;32;20449;-81
2023/10/23 05:26:14;;;;;;;8.82;1.77;;;;;;;15.47;56.68;98075.03;4424898;32;20157;-81
2023/10/23 05:28:41;;;;;;;3.45;1.37;;;;;;;15.44;56.70;98076.06;4425271;32;20101;-81
2023/10/23 05:31:09;;;;;;;4.68;1.40;;;;;;;15.24;57.55;98077.28;4425189;32;20413;-81
2023/10/23 05:33:37;;;;;;;5.10;1.42;;;;;;;14.84;59.29;98080.59;4424802;32;20141;-82
2023/10/23 05:36:05;;;;;;;1.87;0.90;;;;;;;14.90;59.66;98073.28;4425089;32;20480;-81
2023/10/23 05:38:32;;;;;;;4.80;1.60;;;;;;;15.04;59.83;98080.25;4425054;32;20102;-81
2023/10/23 05:41:00;;;;;;;6.22;1.92;;;;;;;15.52;58.22;98081.59;4425004;32;20145;-81
2023/10/23 05:43:27;;;;;;;5.55;1.90;;;;;;;15.04;59.78;98077.66;4425073;32;20147;-81
2023/10/23 05:46:01;;;;;;;5.28;1.85;;;;;;;15.41;58.73;98083.19;4398312;32;20767;-82
2023/10/23 05:48:28;;;;;;;4.75;1.80;;;;;;;15.20;59.89;98095.72;4425072;32;20102;-81
2023/10/23 05:50:59;;;;;;;2.72;1.20;;;;;;;15.21;60.43;98095.66;4424995;32;20089;-81
2023/10/23 05:53:27;;;;;;;3.33;1.05;;;;;;;15.26;60.83;98109.19;4410945;32;20070;-82
2023/10/23 05:55:54;;;;;;;4.25;1.30;;;;;;;15.57;61.13;98107.31;4424857;32;20109;-81
2023/10/23 05:58:21;;;;;;;3.00;1.00;;;;;;;15.65;60.00;98112.94;4411196;32;20101;-81
2023/10/23 06:00:48;;;;;;;1.83;0.85;;;;;;;15.95;59.83;98109.31;4424609;32;20168;-81
2023/10/23 06:03:15;;;;;;;2.35;0.93;;;;;;;16.42;58.81;98109.69;4424899;32;20082;-81
2023/10/23 06:05:43;;;;;;;1.50;0.90;;;;;;;17.05;56.66;98105.53;4424811;32;20437;-81
2023/10/23 06:08:10;;;;;;;1.40;0.90;;;;;;;17.18;54.87;98102.94;4424419;32;20129;-81
2023/10/23 06:10:41;;;;;;;2.33;0.85;;;;;;;17.30;54.73;98104.69;4424911;32;20100;-81
2023/10/23 06:13:08;;;;;;;1.25;0.80;;;;;;;17.47;54.73;98111.34;4410908;32;20431;-81
2023/10/23 06:15:35;;;;;;;2.97;1.08;;;;;;;17.80;53.75;98102.97;4424257;32;20475;-81
2023/10/23 06:18:02;;;;;;;1.90;0.90;;;;;;;18.36;53.56;98103.25;4424388;32;20155;-81
2023/10/23 06:20:30;;;;;;;3.90;1.00;;;;;;;19.47;49.75;98105.28;4424667;32;20089;-81
2023/10/23 06:22:58;;;;;;;2.15;0.70;;;;;;;19.49;48.90;98113.84;4424307;32;20458;-81
2023/10/23 06:25:26;;;;;;;2.40;0.73;;;;;;;18.96;50.12;98116.16;4410637;32;20098;-81
2023/10/23 06:27:53;;;;;;;1.00;0.68;;;;;;;19.49;48.59;98113.00;4424261;32;20165;-81
2023/10/23 06:30:21;;;;;;;2.00;0.70;;;;;;;19.72;47.28;98111.22;4410832;32;20757;-81
2023/10/23 06:32:48;;;;;;;1.73;0.82;;;;;;;19.55;47.94;98115.12;4425059;32;20081;-81
2023/10/23 06:35:16;;;;;;;4.70;1.20;;;;;;;19.62;47.35;98109.31;4426145;32;20081;-81
2023/10/23 06:37:42;;;;;;;3.15;1.20;;;;;;;19.39;47.81;98119.91;4412491;32;20159;-81
2023/10/23 06:40:10;;;;;;;2.87;1.10;;;;;;;19.28;48.16;98118.94;4426396;32;20409;-81
2023/10/23 06:42:37;;;;;;;3.20;0.93;;;;;;;19.53;48.79;98117.87;4425974;32;20085;-82
2023/10/23 06:45:05;;;;;;;3.03;1.00;;;;;;;19.11;49.97;98116.78;4426456;32;20113;-81
2023/10/23 06:47:32;;;;;;;1.80;0.82;;;;;;;19.76;48.17;98118.69;4426259;32;20502;-81
2023/10/23 06:49:59;;;;;;;2.35;1.08;;;;;;;19.82;48.25;98120.84;4425925;32;20566;-82
2023/10/23 06:52:26;;;;;;;2.50;1.10;;;;;;;20.05;48.81;98124.25;4426267;32;20153;-81
2023/10/23 06:54:53;;;;;;;2.65;0.88;;;;;;;21.21;47.12;98122.53;4426199;32;20114;-81
2023/10/23 06:57:20;;;;;;;2.35;0.90;;;;;;;22.53;43.70;98128.47;4412005;32;20183;-82
2023/10/23 06:59:47;;;;;;;5.97;1.33;;;;;;;24.18;40.43;98133.25;4412464;32;20147;-80
2023/10/23 07:02:19;;;;;;;2.70;0.90;;;;;;;25.27;37.81;98133.87;4426208;32;20073;-79
2023/10/23 07:04:47;;;;;;;1.80;1.02;;;;;;;26.17;36.02;98130.66;4425875;32;20128;-79
2023/10/23 07:07:15;;;;;;;2.95;0.90;;;;;;;27.03;35.01;98138.22;4425995;32;20124;-79
2023/10/23 07:09:58;;;;;;;3.45;1.15;;;;;;;27.50;33.98;98128.66;4425802;32;20085;-80
2023/10/23 07:12:27;;;;;;;5.72;1.17;;;;;;;27.71;33.90;98130.78;4412541;32;20101;-79
2023/10/23 07:14:54;;;;;;;2.35;1.10;;;;;;;26.42;36.20;98136.84;4412307;32;20126;-80
2023/10/23 07:17:21;;;;;;;4.05;1.10;;;;;;;24.27;41.07;98126.25;4425540;32;20089;-80
2023/10/23 07:19:48;;;;;;;3.92;1.10;;;;;;;24.51;40.65;98134.44;4426048;32;20104;-80
2023/10/23 07:22:16;;;;;;;2.83;1.20;;;;;;;24.49;41.17;98141.66;4426009;32;20093;-80
2023/10/23 07:24:43;;;;;;;2.35;1.08;;;;;;;23.62;42.98;98140.38;4411732;32;20180;-79
2023/10/23 07:27:14;;;;;;;2.25;0.90;;;;;;;22.42;46.56;98131.22;4412150;32;20157;-80
2023/10/23 07:29:45;;;;;;;4.87;1.30;;;;;;;21.70;48.27;98136.75;4412533;32;20090;-79
2023/10/23 07:32:12;;;;;;;2.15;1.10;;;;;;;20.64;50.17;98129.09;4425656;32;20097;-80
2023/10/23 07:34:39;;;;;;;3.62;1.20;;;;;;;19.96;52.42;98119.75;4425934;32;20216;-79
2023/10/23 07:37:06;;;;;;;2.25;1.20;;;;;;;20.96;50.03;98131.66;4425910;32;20483;-79
2023/10/23 07:39:33;;;;;;;3.25;1.30;;;;;;;21.11;48.99;98129.53;4425634;32;20180;-80
2023/10/23 07:42:02;;;;;;;8.65;1.75;;;;;;;19.97;50.25;98123.19;4425842;32;20101;-79
2023/10/23 07:44:29;;;;;;;7.72;1.90;;;;;;;20.92;49.15;98124.16;4425765;32;20158;-79
2023/10/23 07:46:56;;;;;;;2.92;1.27;;;;;;;21.99;47.42;98126.31;4425461;32;20112;-79
2023/10/23 07:49:24;;;;;;;4.10;1.48;;;;;;;23.08;45.13;98127.91;4425960;32;20425;-79
2023/10/23 07:51:52;;;;;;;3.22;1.30;;;;;;;23.06;44.93;98125.37;4425674;32;20108;-79
2023/10/23 07:54:20;;;;;;;5.15;1.50;;;;;;;24.27;42.83;98126.25;4425842;32;20102;-79
2023/10/23 07:56:47;;;;;;;4.05;1.40;;;;;;;25.50;40.25;98136.81;4425629;32;20109;-79
2023/10/23 07:59:14;;;;;;;3.10;1.10;;;;;;;25.95;38.76;98133.91;4425533;32;20499;-79
2023/10/23 08:01:41;;;;;;;3.47;1.40;;;;;;;26.50;38.13;98134.22;4399434;32;20379;-79
2023/10/23 08:04:08;;;;;;;3.08;1.20;;;;;;;26.58;38.28;98129.91;4425781;32;20102;-79
2023/10/23 08:06:36;;;;;;;5.43;1.50;;;;;;;26.66;37.50;98135.22;4411754;32;20167;-79
2023/10/23 08:09:03;;;;;;;5.20;1.70;;;;;;;24.04;42.25;98128.50;4411816;32;20436;-79
2023/10/23 08:11:30;;;;;;;4.43;1.52;;;;;;;25.57;40.58;98133.37;4411924;32;20436;-79
2023/10/23 08:14:00;;;;;;;4.10;1.58;;;;;;;25.42;40.63;98134.97;4425381;32;20436;-79
2023/10/23 08:16:29;;;;;;;3.97;1.48;;;;;;;25.04;41.72;98136.22;4425480;32;20373;-79
2023/10/23 08:18:59;;;;;;;4.82;1.70;;;;;;;25.79;40.75;98139.94;4425498;32;20459;-79
2023/10/23 08:21:28;;;;;;;5.62;1.70;;;;;;;25.41;40.97;98138.56;4425459;32;20164;-79
2023/10/23 08:23:56;;;;;;;5.82;1.85;;;;;;;24.55;42.83;98135.78;4425520;32;20114;-79
2023/10/23 08:26:23;;;;;;;4.28;1.30;;;;;;;25.37;41.77;98127.50;4399295;32;20473;-79
2023/10/23 08:28:50;;;;;;;5.72;1.65;;;;;;;25.37;42.20;98124.84;4425070;32;20089;-79
2023/10/23 08:31:21;;;;;;;3.53;1.40;;;;;;;24.04;44.61;98123.22;4425512;32;20147;-79
2023/10/23 08:34:04;;;;;;;2.65;1.30;;;;;;;24.69;43.06;98124.72;4425324;32;20117;-79
2023/10/23 08:36:32;;;;;;;4.12;1.42;;;;;;;25.26;41.71;98121.66;4411865;32;20110;-79
2023/10/23 08:39:00;;;;;;;4.93;1.50;;;;;;;24.77;43.24;98126.56;4425504;32;20107;-79
2023/10/23 08:41:27;;;;;;;5.40;1.58;;;;;;;24.24;43.97;98122.09;4425249;32;20081;-79
2023/10/23 08:43:55;;;;;;;4.40;1.52;;;;;;;22.32;48.89;98124.31;4425369;32;20106;-79
2023/10/23 08:46:31;;;;;;;8.80;1.85;;;;;;;24.21;45.72;98120.59;4425377;32;20102;-79
2023/10/23 08:49:02;;;;;;;3.85;1.60;;;;;;;24.22;45.78;98121.41;4425291;32;20456;-79
2023/10/23 08:51:31;;;;;;;3.30;1.50;;;;;;;24.38;45.57;98128.72;4411898;32;20395;-79
2023/10/23 08:54:17;;;;;;;3.65;1.30;;;;;;;23.15;47.50;98134.22;4411887;32;20118;-79
2023/10/23 08:56:50;;;;;;;5.18;1.52;;;;;;;24.19;45.48;98127.00;4424472;32;20119;-79
2023/10/23 08:59:17;;;;;;;4.90;1.60;;;;;;;25.62;43.37;98136.38;4425495;32;20090;-79
2023/10/23 09:01:45;;;;;;;4.57;1.50;;;;;;;25.54;42.84;98133.72;4425180;32;20090;-79
2023/10/23 09:04:12;;;;;;;4.55;1.55;;;;;;;26.01;42.55;98130.59;4424900;32;20105;-79
2023/10/23 09:06:40;;;;;;;5.28;1.60;;;;;;;26.14;41.50;98135.44;4425176;32;20155;-79
2023/10/23 09:09:07;;;;;;;5.03;1.40;;;;;;;26.54;40.95;98137.34;4421320;27;20101;-80
2023/10/23 09:11:43;;;;;;;5.75;1.70;;;;;;;26.07;40.79;98127.34;4410053;32;20453;-80
2023/10/23 09:14:24;;;;;;;3.53;1.45;;;;;;;27.73;38.09;98134.91;4410146;32;20106;-79
2023/10/23 09:16:53;;;;;;;5.37;1.65;;;;;;;28.14;37.26;98127.59;4409814;32;20094;-79
2023/10/23 09:24:45;;;;;;;5.40;1.15;;;;;;;27.35;36.81;98149.75;4222475;30;20136;-80
2023/10/23 09:27:12;;;;;;;3.85;1.50;;;;;;;26.39;39.55;98147.75;4394873;32;20129;-81
2023/10/23 09:29:39;;;;;;;4.15;1.40;;;;;;;26.04;39.85;98142.66;4394832;32;20160;-81
2023/10/23 09:32:06;;;;;;;4.50;1.42;;;;;;;25.66;41.08;98147.47;4394529;32;20437;-81
2023/10/23 09:34:40;;;;;;;5.12;1.40;;;;;;;24.99;42.41;98151.63;4381209;32;20180;-81
2023/10/23 09:37:07;;;;;;;4.72;1.62;;;;;;;24.65;42.77;98141.81;4380745;32;20102;-81
2023/10/23 09:39:36;;;;;;;4.00;1.25;;;;;;;24.26;43.22;98143.06;4394706;32;20110;-81
2023/10/23 09:42:07;;;;;;;6.47;1.33;;;;;;;24.18;43.33;98142.00;4394661;32;20113;-80
2023/10/23 09:44:36;;;;;;;4.80;1.30;;;;;;;24.06;44.32;98139.72;4394408;32;20157;-80
2023/10/23 09:47:03;;;;;;;6.37;1.98;;;;;;;23.90;45.31;98151.72;4381252;32;20419;-81
2023/10/23 09:49:34;;;;;;;4.82;1.40;;;;;;;23.26;46.13;98147.22;4394626;32;20501;-81
2023/10/23 09:52:07;;;;;;;6.30;1.62;;;;;;;23.45;46.12;98140.25;4394353;32;20335;-81
2023/10/23 09:54:36;;;;;;;4.12;1.50;;;;;;;22.96;46.85;98147.44;4394689;32;20480;-80
2023/10/23 09:57:03;;;;;;;6.22;1.50;;;;;;;23.35;46.80;98140.28;4393398;32;20118;-81
2023/10/23 09:59:54;;;;;;;2.65;1.35;;;;;;;24.10;45.86;98136.63;4368210;32;20438;-81
2023/10/23 10:02:24;;;;;;;4.50;1.55;;;;;;;23.84;45.51;98147.06;4394458;32;20082;-80
2023/10/23 10:05:08;;;;;;;8.48;2.03;;;;;;;23.80;45.37;98147.47;4394629;32;20098;-80
2023/10/23 10:07:45;;;;;;;3.42;1.45;;;;;;;23.50;46.86;98146.75;4394259;32;20103;-80
2023/10/23 10:10:12;;;;;;;4.18;1.50;;;;;;;23.39;46.47;98146.91;4380992;32;20116;-80
2023/10/23 10:12:41;;;;;;;4.00;1.60;;;;;;;23.11;46.64;98143.41;4380474;32;20105;-81
2023/10/23 10:15:11;;;;;;;3.53;1.50;;;;;;;23.27;47.20;98148.06;4380671;32;20115;-80
2023/10/23 10:17:42;;;;;;;3.50;1.48;;;;;;;23.73;46.89;98134.06;4381106;32;20128;-80
2023/10/23 10:20:11;;;;;;;3.92;1.55;;;;;;;23.77;45.40;98145.12;4380923;32;20433;-81
2023/10/23 10:22:42;;;;;;;3.95;1.50;;;;;;;23.36;46.22;98136.66;4394137;32;20106;-80
2023/10/23 10:25:11;;;;;;;9.52;1.92;;;;;;;22.96;47.14;98147.44;4380915;32;20124;-80
2023/10/23 10:27:38;;;;;;;5.15;1.70;;;;;;;22.93;47.49;98151.19;4380319;32;20110;-81
2023/10/23 10:30:06;;;;;;;4.15;1.70;;;;;;;23.19;47.24;98148.78;4394177;32;20105;-80
2023/10/23 10:32:33;;;;;;;3.30;1.40;;;;;;;23.60;46.44;98138.81;4394224;32;20449;-81
2023/10/23 10:35:29;;;;;;;5.20;1.67;;;;;;;23.34;46.26;98134.19;4393524;32;20484;-80
2023/10/23 10:38:12;;;;;;;5.70;1.60;;;;;;;23.84;45.60;98120.72;4381933;32;20091;-80
2023/10/23 10:41:14;;;;;;;3.53;1.30;;;;;;;23.91;45.03;98118.28;4393661;32;20096;-81
2023/10/23 10:43:43;;;;;;;5.18;1.60;;;;;;;23.53;46.00;98109.59;4394059;32;20083;-80
2023/10/23 10:46:24;;;;;;;6.62;1.75;;;;;;;23.38;46.42;98098.69;4393822;32;20479;-80
2023/10/23 10:48:53;;;;;;;7.12;1.50;;;;;;;22.97;47.77;98088.59;4367652;32;20119;-81
2023/10/23 10:51:24;;;;;;;4.70;1.30;;;;;;;23.47;45.81;98088.25;4380269;32;20102;-80
2023/10/23 10:54:03;;;;;;;3.97;1.40;;;;;;;22.89;46.23;98085.84;4393877;32;20645;-80
2023/10/23 10:56:30;;;;;;;6.05;1.50;;;;;;;23.51;44.54;98094.91;4380399;32;20159;-80
2023/10/23 10:59:01;;;;;;;5.18;1.40;;;;;;;23.85;43.99;98088.09;4380122;32;20488;-80
2023/10/23 11:01:29;;;;;;;8.05;2.85;;;;;;;23.77;45.03;98101.19;4379814;32;20094;-81
2023/10/23 11:03:56;;;;;;;6.87;1.60;;;;;;;23.94;45.18;98092.50;4393583;32;20149;-80
2023/10/23 11:06:24;;;;;;;5.10;1.48;;;;;;;24.15;44.40;98091.38;4380152;32;20152;-80
2023/10/23 11:08:51;;;;;;;7.97;1.55;;;;;;;24.88;43.01;98084.09;4379582;32;20125;-80
2023/10/23 11:11:18;;;;;;;5.05;1.40;;;;;;;24.43;43.06;98066.59;4380038;32;20110;-80
2023/10/23 11:13:46;;;;;;;5.22;1.30;;;;;;;24.88;41.62;98075.34;4393550;32;20138;-80
2023/10/23 11:16:13;;;;;;;4.60;1.58;;;;;;;25.11;41.85;98071.25;4393094;32;20111;-80
2023/10/23 11:18:40;;;;;;;3.50;1.58;;;;;;;25.50;40.76;98068.94;4380355;32;20176;-80
2023/10/23 11:21:09;;;;;;;3.50;1.40;;;;;;;24.99;41.72;98062.75;4382189;32;20117;-80
2023/10/23 11:23:36;;;;;;;2.70;1.23;;;;;;;24.59;42.47;98059.81;4395080;32;20090;-80
2023/10/23 11:26:03;;;;;;;5.80;1.50;;;;;;;24.83;42.16;98059.16;4395502;32;20099;-80
2023/10/23 11:28:30;;;;;;;5.03;1.50;;;;;;;25.42;42.01;98052.25;4395553;32;20125;-80
2023/10/23 11:31:01;;;;;;;3.08;1.30;;;;;;;25.27;41.86;98052.00;4395319;32;20161;-81
2023/10/23 11:33:29;;;;;;;2.95;1.52;;;;;;;25.80;40.42;98050.91;4395765;32;20087;-80
2023/10/23 11:35:56;;;;;;;3.62;1.23;;;;;;;25.07;41.28;98046.12;4395453;32;20472;-80
2023/10/23 11:38:26;;;;;;;4.18;1.30;;;;;;;25.43;40.21;98044.19;4395253;32;20165;-81
2023/10/23 11:40:55;;;;;;;4.75;1.10;;;;;;;25.85;39.92;98043.34;4395615;32;20125;-80
2023/10/23 11:43:23;;;;;;;5.03;1.35;;;;;;;25.77;39.99;98040.69;4395433;32;20091;-80
2023/10/23 11:45:50;;;;;;;4.68;1.40;;;;;;;25.25;41.11;98046.06;4382281;32;20114;-80